sensor_id;sensor_type;location;lat;lon;timestamp;P1;durP1;ratioP1;P2;durP2;ratioP2
65971;SDS011;52726;48.852;9.152;2023-05-25T00:01:02;7.63;;;2.83;;
65971;SDS011;52726;48.852;9.152;2023-05-25T00:03:28;12.32;;;2.55;;
65971;SDS011;52726;48.852;9.152;2023-05-25T00:08:23;4.57;;;1.80;;
65971;SDS011;52726;48.852;9.152;2023-05-25T00:10:48;8.50;;;2.50;;
65971;SDS011;52726;48.852;9.152;2023-05-25T00:13:13;6.47;;;2.78;;
65971;SDS011;52726;48.852;9.152;2023-05-25T00:15:39;5.85;;;2.20;;
65971;SDS011;52726;48.852;9.152;2023-05-25T00:18:04;5.43;;;2.03;;
65971;SDS011;52726;48.852;9.152;2023-05-25T00:20:30;6.93;;;2.15;;
65971;SDS011;52726;48.852;9.152;2023-05-25T00:22:57;6.38;;;2.35;;
65971;SDS011;52726;48.852;9.152;2023-05-25T00:25:22;5.47;;;2.20;;
65971;SDS011;52726;48.852;9.152;2023-05-25T00:27:57;6.28;;;2.03;;
65971;SDS011;52726;48.852;9.152;2023-05-25T00:30:22;7.38;;;2.35;;
65971;SDS011;52726;48.852;9.152;2023-05-25T00:32:47;8.88;;;2.20;;
65971;SDS011;52726;48.852;9.152;2023-05-25T00:35:13;9.57;;;2.42;;
65971;SDS011;52726;48.852;9.152;2023-05-25T00:37:38;6.75;;;2.05;;
65971;SDS011;52726;48.852;9.152;2023-05-25T00:40:04;5.60;;;2.13;;
65971;SDS011;52726;48.852;9.152;2023-05-25T00:42:34;7.03;;;2.60;;
65971;SDS011;52726;48.852;9.152;2023-05-25T00:45:02;3.90;;;2.10;;
65971;SDS011;52726;48.852;9.152;2023-05-25T00:47:28;5.38;;;2.05;;
65971;SDS011;52726;48.852;9.152;2023-05-25T00:49:54;6.57;;;2.50;;
65971;SDS011;52726;48.852;9.152;2023-05-25T00:52:19;4.90;;;2.10;;
65971;SDS011;52726;48.852;9.152;2023-05-25T00:54:45;3.85;;;2.15;;
65971;SDS011;52726;48.852;9.152;2023-05-25T00:57:12;4.15;;;1.92;;
65971;SDS011;52726;48.852;9.152;2023-05-25T00:59:41;8.98;;;2.50;;
65971;SDS011;52726;48.852;9.152;2023-05-25T01:02:11;8.02;;;2.60;;
65971;SDS011;52726;48.852;9.152;2023-05-25T01:04:40;6.25;;;2.47;;
65971;SDS011;52726;48.852;9.152;2023-05-25T01:07:09;8.38;;;2.83;;
65971;SDS011;52726;48.852;9.152;2023-05-25T01:09:39;8.18;;;2.40;;
65971;SDS011;52726;48.852;9.152;2023-05-25T01:12:08;5.40;;;2.00;;
65971;SDS011;52726;48.852;9.152;2023-05-25T01:14:37;6.50;;;2.53;;
65971;SDS011;52726;48.852;9.152;2023-05-25T01:17:04;5.30;;;2.38;;
65971;SDS011;52726;48.852;9.152;2023-05-25T01:19:30;8.10;;;2.60;;
65971;SDS011;52726;48.852;9.152;2023-05-25T01:22:01;6.53;;;2.97;;
65971;SDS011;52726;48.852;9.152;2023-05-25T01:27:17;8.68;;;2.25;;
65971;SDS011;52726;48.852;9.152;2023-05-25T01:29:52;7.38;;;2.20;;
65971;SDS011;52726;48.852;9.152;2023-05-25T01:32:18;7.28;;;2.67;;
65971;SDS011;52726;48.852;9.152;2023-05-25T01:34:44;6.75;;;2.45;;
65971;SDS011;52726;48.852;9.152;2023-05-25T01:37:11;7.43;;;2.58;;
65971;SDS011;52726;48.852;9.152;2023-05-25T01:39:37;7.47;;;2.63;;
65971;SDS011;52726;48.852;9.152;2023-05-25T01:42:06;6.90;;;2.40;;
65971;SDS011;52726;48.852;9.152;2023-05-25T01:44:31;5.28;;;2.70;;
65971;SDS011;52726;48.852;9.152;2023-05-25T01:47:02;5.40;;;2.75;;
65971;SDS011;52726;48.852;9.152;2023-05-25T01:52:22;7.78;;;2.33;;
65971;SDS011;52726;48.852;9.152;2023-05-25T01:54:56;11.32;;;2.28;;
65971;SDS011;52726;48.852;9.152;2023-05-25T01:57:30;9.55;;;2.30;;
65971;SDS011;52726;48.852;9.152;2023-05-25T02:00:01;8.63;;;2.40;;
65971;SDS011;52726;48.852;9.152;2023-05-25T02:02:28;4.68;;;2.25;;
65971;SDS011;52726;48.852;9.152;2023-05-25T02:04:56;8.00;;;2.17;;
65971;SDS011;52726;48.852;9.152;2023-05-25T02:07:22;6.40;;;2.47;;
65971;SDS011;52726;48.852;9.152;2023-05-25T02:09:47;6.10;;;2.50;;
65971;SDS011;52726;48.852;9.152;2023-05-25T02:12:13;7.75;;;2.50;;
65971;SDS011;52726;48.852;9.152;2023-05-25T02:14:38;7.78;;;2.53;;
65971;SDS011;52726;48.852;9.152;2023-05-25T02:17:04;10.63;;;3.03;;
65971;SDS011;52726;48.852;9.152;2023-05-25T02:19:29;5.70;;;2.53;;
65971;SDS011;52726;48.852;9.152;2023-05-25T02:21:54;6.35;;;2.25;;
65971;SDS011;52726;48.852;9.152;2023-05-25T02:24:21;10.13;;;2.92;;
65971;SDS011;52726;48.852;9.152;2023-05-25T02:26:48;9.52;;;3.25;;
65971;SDS011;52726;48.852;9.152;2023-05-25T02:29:14;5.05;;;2.45;;
65971;SDS011;52726;48.852;9.152;2023-05-25T02:31:39;10.13;;;2.45;;
65971;SDS011;52726;48.852;9.152;2023-05-25T02:34:04;8.60;;;3.03;;
65971;SDS011;52726;48.852;9.152;2023-05-25T02:36:30;14.48;;;3.00;;
65971;SDS011;52726;48.852;9.152;2023-05-25T02:38:55;7.47;;;2.60;;
65971;SDS011;52726;48.852;9.152;2023-05-25T02:41:21;5.63;;;2.65;;
65971;SDS011;52726;48.852;9.152;2023-05-25T02:43:48;5.07;;;2.63;;
65971;SDS011;52726;48.852;9.152;2023-05-25T02:46:14;9.20;;;2.47;;
65971;SDS011;52726;48.852;9.152;2023-05-25T02:48:40;8.18;;;2.40;;
65971;SDS011;52726;48.852;9.152;2023-05-25T02:51:07;4.40;;;2.50;;
65971;SDS011;52726;48.852;9.152;2023-05-25T02:53:32;7.97;;;2.78;;
65971;SDS011;52726;48.852;9.152;2023-05-25T02:55:57;10.07;;;3.00;;
65971;SDS011;52726;48.852;9.152;2023-05-25T02:58:24;6.80;;;2.95;;
65971;SDS011;52726;48.852;9.152;2023-05-25T03:00:50;7.07;;;2.85;;
65971;SDS011;52726;48.852;9.152;2023-05-25T03:03:16;7.72;;;2.70;;
65971;SDS011;52726;48.852;9.152;2023-05-25T03:05:41;7.15;;;3.03;;
65971;SDS011;52726;48.852;9.152;2023-05-25T03:08:06;9.00;;;3.33;;
65971;SDS011;52726;48.852;9.152;2023-05-25T03:10:31;11.93;;;3.72;;
65971;SDS011;52726;48.852;9.152;2023-05-25T03:12:57;6.40;;;2.75;;
65971;SDS011;52726;48.852;9.152;2023-05-25T03:15:22;3.05;;;2.40;;
65971;SDS011;52726;48.852;9.152;2023-05-25T03:17:48;10.38;;;2.92;;
65971;SDS011;52726;48.852;9.152;2023-05-25T03:20:14;8.38;;;2.72;;
65971;SDS011;52726;48.852;9.152;2023-05-25T03:22:40;12.02;;;3.42;;
65971;SDS011;52726;48.852;9.152;2023-05-25T03:25:06;7.90;;;2.97;;
65971;SDS011;52726;48.852;9.152;2023-05-25T03:27:32;9.93;;;3.13;;
65971;SDS011;52726;48.852;9.152;2023-05-25T03:29:58;9.05;;;2.80;;
65971;SDS011;52726;48.852;9.152;2023-05-25T03:32:23;8.73;;;2.88;;
65971;SDS011;52726;48.852;9.152;2023-05-25T03:34:48;8.57;;;3.33;;
65971;SDS011;52726;48.852;9.152;2023-05-25T03:37:14;10.80;;;3.08;;
65971;SDS011;52726;48.852;9.152;2023-05-25T03:39:39;7.75;;;2.85;;
65971;SDS011;52726;48.852;9.152;2023-05-25T03:42:05;8.15;;;3.08;;
65971;SDS011;52726;48.852;9.152;2023-05-25T03:44:30;9.45;;;3.22;;
65971;SDS011;52726;48.852;9.152;2023-05-25T03:46:56;9.88;;;3.35;;
65971;SDS011;52726;48.852;9.152;2023-05-25T03:49:21;6.38;;;3.20;;
65971;SDS011;52726;48.852;9.152;2023-05-25T03:51:46;5.88;;;2.88;;
65971;SDS011;52726;48.852;9.152;2023-05-25T03:54:12;4.78;;;2.63;;
65971;SDS011;52726;48.852;9.152;2023-05-25T03:56:37;6.55;;;3.40;;
65971;SDS011;52726;48.852;9.152;2023-05-25T03:59:02;9.02;;;3.55;;
65971;SDS011;52726;48.852;9.152;2023-05-25T04:01:28;8.88;;;2.95;;
65971;SDS011;52726;48.852;9.152;2023-05-25T04:03:54;6.20;;;2.92;;
65971;SDS011;52726;48.852;9.152;2023-05-25T04:06:20;11.45;;;3.15;;
65971;SDS011;52726;48.852;9.152;2023-05-25T04:08:45;11.27;;;3.38;;
65971;SDS011;52726;48.852;9.152;2023-05-25T04:11:11;7.80;;;3.05;;
65971;SDS011;52726;48.852;9.152;2023-05-25T04:13:37;5.90;;;3.00;;
65971;SDS011;52726;48.852;9.152;2023-05-25T04:16:04;8.88;;;3.38;;
65971;SDS011;52726;48.852;9.152;2023-05-25T04:18:30;7.45;;;3.15;;
65971;SDS011;52726;48.852;9.152;2023-05-25T04:20:55;6.88;;;3.33;;
65971;SDS011;52726;48.852;9.152;2023-05-25T04:23:21;11.45;;;3.10;;
65971;SDS011;52726;48.852;9.152;2023-05-25T04:25:47;10.07;;;3.05;;
65971;SDS011;52726;48.852;9.152;2023-05-25T04:28:15;7.78;;;3.00;;
65971;SDS011;52726;48.852;9.152;2023-05-25T04:30:40;9.98;;;3.28;;
65971;SDS011;52726;48.852;9.152;2023-05-25T04:33:06;10.35;;;3.92;;
65971;SDS011;52726;48.852;9.152;2023-05-25T04:35:31;14.65;;;3.58;;
65971;SDS011;52726;48.852;9.152;2023-05-25T04:37:56;4.47;;;3.00;;
65971;SDS011;52726;48.852;9.152;2023-05-25T04:40:24;15.80;;;3.45;;
65971;SDS011;52726;48.852;9.152;2023-05-25T04:42:51;9.95;;;3.45;;
65971;SDS011;52726;48.852;9.152;2023-05-25T04:45:17;6.93;;;3.38;;
65971;SDS011;52726;48.852;9.152;2023-05-25T04:47:45;14.18;;;3.50;;
65971;SDS011;52726;48.852;9.152;2023-05-25T04:50:11;12.38;;;4.32;;
65971;SDS011;52726;48.852;9.152;2023-05-25T04:52:36;7.97;;;3.15;;
65971;SDS011;52726;48.852;9.152;2023-05-25T04:55:02;7.53;;;2.88;;
65971;SDS011;52726;48.852;9.152;2023-05-25T04:57:28;12.30;;;4.25;;
65971;SDS011;52726;48.852;9.152;2023-05-25T04:59:55;25.92;;;4.88;;
65971;SDS011;52726;48.852;9.152;2023-05-25T05:02:20;7.60;;;3.05;;
65971;SDS011;52726;48.852;9.152;2023-05-25T05:04:46;6.53;;;2.85;;
65971;SDS011;52726;48.852;9.152;2023-05-25T05:07:11;7.53;;;3.03;;
65971;SDS011;52726;48.852;9.152;2023-05-25T05:09:36;10.85;;;3.45;;
65971;SDS011;52726;48.852;9.152;2023-05-25T05:12:02;10.68;;;3.20;;
65971;SDS011;52726;48.852;9.152;2023-05-25T05:14:28;6.47;;;3.10;;
65971;SDS011;52726;48.852;9.152;2023-05-25T05:16:53;12.60;;;4.10;;
65971;SDS011;52726;48.852;9.152;2023-05-25T05:19:18;10.73;;;3.00;;
65971;SDS011;52726;48.852;9.152;2023-05-25T05:25:06;4.95;;;2.63;;
65971;SDS011;52726;48.852;9.152;2023-05-25T05:27:31;7.38;;;3.17;;
65971;SDS011;52726;48.852;9.152;2023-05-25T05:29:57;11.57;;;3.58;;
65971;SDS011;52726;48.852;9.152;2023-05-25T05:35:33;10.77;;;3.83;;
65971;SDS011;52726;48.852;9.152;2023-05-25T05:38:09;12.35;;;3.72;;
65971;SDS011;52726;48.852;9.152;2023-05-25T05:40:39;9.38;;;3.67;;
65971;SDS011;52726;48.852;9.152;2023-05-25T05:43:11;6.55;;;2.78;;
65971;SDS011;52726;48.852;9.152;2023-05-25T05:52:04;7.80;;;3.10;;
65971;SDS011;52726;48.852;9.152;2023-05-25T05:54:42;11.68;;;3.28;;
65971;SDS011;52726;48.852;9.152;2023-05-25T06:14:33;6.88;;;3.25;;
65971;SDS011;52726;48.852;9.152;2023-05-25T06:47:35;11.65;;;3.75;;
65971;SDS011;52726;48.852;9.152;2023-05-25T06:50:00;8.88;;;3.45;;
65971;SDS011;52726;48.852;9.152;2023-05-25T06:52:26;10.43;;;3.45;;
65971;SDS011;52726;48.852;9.152;2023-05-25T06:54:55;8.18;;;3.10;;
65971;SDS011;52726;48.852;9.152;2023-05-25T06:57:21;6.93;;;2.97;;
65971;SDS011;52726;48.852;9.152;2023-05-25T06:59:47;7.28;;;3.63;;
65971;SDS011;52726;48.852;9.152;2023-05-25T07:02:12;10.85;;;3.80;;
65971;SDS011;52726;48.852;9.152;2023-05-25T07:04:38;14.25;;;3.95;;
65971;SDS011;52726;48.852;9.152;2023-05-25T07:07:03;12.07;;;3.58;;
65971;SDS011;52726;48.852;9.152;2023-05-25T07:09:29;11.93;;;3.38;;
65971;SDS011;52726;48.852;9.152;2023-05-25T07:11:54;14.00;;;4.22;;
65971;SDS011;52726;48.852;9.152;2023-05-25T07:14:19;10.30;;;3.60;;
65971;SDS011;52726;48.852;9.152;2023-05-25T07:16:45;10.50;;;3.50;;
65971;SDS011;52726;48.852;9.152;2023-05-25T07:19:10;10.90;;;4.30;;
65971;SDS011;52726;48.852;9.152;2023-05-25T07:21:35;13.57;;;3.42;;
65971;SDS011;52726;48.852;9.152;2023-05-25T07:24:01;10.57;;;4.07;;
65971;SDS011;52726;48.852;9.152;2023-05-25T07:26:27;15.57;;;3.38;;
65971;SDS011;52726;48.852;9.152;2023-05-25T07:28:54;8.50;;;3.28;;
65971;SDS011;52726;48.852;9.152;2023-05-25T07:31:19;12.35;;;3.65;;
65971;SDS011;52726;48.852;9.152;2023-05-25T07:33:45;16.67;;;4.35;;
65971;SDS011;52726;48.852;9.152;2023-05-25T07:36:10;16.73;;;3.65;;
65971;SDS011;52726;48.852;9.152;2023-05-25T07:38:36;11.25;;;3.45;;
65971;SDS011;52726;48.852;9.152;2023-05-25T07:41:01;13.23;;;4.15;;
65971;SDS011;52726;48.852;9.152;2023-05-25T07:43:27;7.95;;;3.80;;
65971;SDS011;52726;48.852;9.152;2023-05-25T07:45:52;10.07;;;3.30;;
65971;SDS011;52726;48.852;9.152;2023-05-25T07:48:18;13.65;;;4.15;;
65971;SDS011;52726;48.852;9.152;2023-05-25T07:50:43;6.70;;;3.25;;
65971;SDS011;52726;48.852;9.152;2023-05-25T07:53:09;13.25;;;3.95;;
65971;SDS011;52726;48.852;9.152;2023-05-25T07:55:34;9.30;;;3.58;;
65971;SDS011;52726;48.852;9.152;2023-05-25T07:58:00;10.98;;;3.97;;
65971;SDS011;52726;48.852;9.152;2023-05-25T08:00:25;14.55;;;3.80;;
65971;SDS011;52726;48.852;9.152;2023-05-25T08:02:50;10.65;;;4.25;;
65971;SDS011;52726;48.852;9.152;2023-05-25T08:05:16;16.02;;;4.28;;
65971;SDS011;52726;48.852;9.152;2023-05-25T08:07:41;14.55;;;5.70;;
65971;SDS011;52726;48.852;9.152;2023-05-25T08:10:07;20.60;;;4.75;;
65971;SDS011;52726;48.852;9.152;2023-05-25T08:12:33;12.43;;;4.15;;
65971;SDS011;52726;48.852;9.152;2023-05-25T08:14:58;8.77;;;3.40;;
65971;SDS011;52726;48.852;9.152;2023-05-25T08:17:24;18.95;;;4.07;;
65971;SDS011;52726;48.852;9.152;2023-05-25T08:19:49;13.70;;;4.38;;
65971;SDS011;52726;48.852;9.152;2023-05-25T08:22:14;15.23;;;5.32;;
65971;SDS011;52726;48.852;9.152;2023-05-25T08:24:40;10.25;;;4.05;;
65971;SDS011;52726;48.852;9.152;2023-05-25T08:27:05;10.68;;;4.20;;
65971;SDS011;52726;48.852;9.152;2023-05-25T08:29:31;14.00;;;3.83;;
65971;SDS011;52726;48.852;9.152;2023-05-25T08:31:56;11.65;;;4.07;;
65971;SDS011;52726;48.852;9.152;2023-05-25T08:34:21;9.60;;;3.83;;
65971;SDS011;52726;48.852;9.152;2023-05-25T08:36:47;8.88;;;4.45;;
65971;SDS011;52726;48.852;9.152;2023-05-25T08:39:12;7.78;;;4.00;;
65971;SDS011;52726;48.852;9.152;2023-05-25T08:41:40;9.38;;;4.53;;
65971;SDS011;52726;48.852;9.152;2023-05-25T08:44:08;11.45;;;4.22;;
65971;SDS011;52726;48.852;9.152;2023-05-25T08:46:36;10.63;;;4.30;;
65971;SDS011;52726;48.852;9.152;2023-05-25T08:49:11;13.85;;;3.97;;
65971;SDS011;52726;48.852;9.152;2023-05-25T08:51:41;10.07;;;4.55;;
65971;SDS011;52726;48.852;9.152;2023-05-25T08:54:13;14.77;;;4.53;;
65971;SDS011;52726;48.852;9.152;2023-05-25T08:59:11;8.60;;;4.18;;
65971;SDS011;52726;48.852;9.152;2023-05-25T09:01:40;13.30;;;4.28;;
65971;SDS011;52726;48.852;9.152;2023-05-25T09:04:09;10.98;;;3.80;;
65971;SDS011;52726;48.852;9.152;2023-05-25T09:06:38;11.68;;;4.25;;
65971;SDS011;52726;48.852;9.152;2023-05-25T09:09:04;8.65;;;4.07;;
65971;SDS011;52726;48.852;9.152;2023-05-25T09:11:30;12.27;;;4.47;;
65971;SDS011;52726;48.852;9.152;2023-05-25T09:13:56;12.23;;;4.20;;
65971;SDS011;52726;48.852;9.152;2023-05-25T09:16:22;9.98;;;3.92;;
65971;SDS011;52726;48.852;9.152;2023-05-25T09:18:49;13.98;;;4.78;;
65971;SDS011;52726;48.852;9.152;2023-05-25T09:21:15;13.50;;;4.22;;
65971;SDS011;52726;48.852;9.152;2023-05-25T09:23:41;11.73;;;4.35;;
65971;SDS011;52726;48.852;9.152;2023-05-25T09:26:06;7.50;;;3.80;;
65971;SDS011;52726;48.852;9.152;2023-05-25T09:28:32;10.73;;;4.32;;
65971;SDS011;52726;48.852;9.152;2023-05-25T09:30:58;11.98;;;3.92;;
65971;SDS011;52726;48.852;9.152;2023-05-25T09:33:24;11.15;;;3.95;;
65971;SDS011;52726;48.852;9.152;2023-05-25T09:35:50;5.53;;;3.53;;
65971;SDS011;52726;48.852;9.152;2023-05-25T09:38:15;9.85;;;4.15;;
65971;SDS011;52726;48.852;9.152;2023-05-25T09:40:41;10.23;;;4.20;;
65971;SDS011;52726;48.852;9.152;2023-05-25T09:43:06;11.63;;;4.20;;
65971;SDS011;52726;48.852;9.152;2023-05-25T09:45:32;9.15;;;4.32;;
65971;SDS011;52726;48.852;9.152;2023-05-25T09:47:57;8.43;;;3.63;;
65971;SDS011;52726;48.852;9.152;2023-05-25T09:50:25;13.90;;;4.50;;
65971;SDS011;52726;48.852;9.152;2023-05-25T09:52:55;12.60;;;3.85;;
65971;SDS011;52726;48.852;9.152;2023-05-25T09:55:22;11.40;;;4.28;;
65971;SDS011;52726;48.852;9.152;2023-05-25T09:57:51;10.23;;;4.65;;
65971;SDS011;52726;48.852;9.152;2023-05-25T10:00:17;8.23;;;3.78;;
65971;SDS011;52726;48.852;9.152;2023-05-25T10:02:43;10.75;;;4.35;;
65971;SDS011;52726;48.852;9.152;2023-05-25T10:05:08;11.43;;;4.05;;
65971;SDS011;52726;48.852;9.152;2023-05-25T10:07:34;12.60;;;3.83;;
65971;SDS011;52726;48.852;9.152;2023-05-25T10:10:02;12.05;;;3.72;;
65971;SDS011;52726;48.852;9.152;2023-05-25T10:12:31;9.93;;;4.10;;
65971;SDS011;52726;48.852;9.152;2023-05-25T10:14:58;10.52;;;3.55;;
65971;SDS011;52726;48.852;9.152;2023-05-25T10:17:27;13.90;;;4.55;;
65971;SDS011;52726;48.852;9.152;2023-05-25T10:19:59;8.60;;;4.10;;
65971;SDS011;52726;48.852;9.152;2023-05-25T10:27:33;13.68;;;3.72;;
65971;SDS011;52726;48.852;9.152;2023-05-25T10:30:11;7.70;;;3.10;;
65971;SDS011;52726;48.852;9.152;2023-05-25T10:32:38;8.23;;;3.75;;
65971;SDS011;52726;48.852;9.152;2023-05-25T10:35:05;9.68;;;3.78;;
65971;SDS011;52726;48.852;9.152;2023-05-25T10:37:32;5.75;;;3.22;;
65971;SDS011;52726;48.852;9.152;2023-05-25T10:43:12;10.88;;;3.40;;
65971;SDS011;52726;48.852;9.152;2023-05-25T10:45:59;12.57;;;4.18;;
65971;SDS011;52726;48.852;9.152;2023-05-25T10:48:44;9.75;;;3.92;;
65971;SDS011;52726;48.852;9.152;2023-05-25T10:51:12;10.52;;;3.78;;
65971;SDS011;52726;48.852;9.152;2023-05-25T10:53:38;7.22;;;2.85;;
65971;SDS011;52726;48.852;9.152;2023-05-25T10:56:08;5.43;;;3.17;;
65971;SDS011;52726;48.852;9.152;2023-05-25T10:58:39;11.95;;;3.50;;
65971;SDS011;52726;48.852;9.152;2023-05-25T11:01:10;10.40;;;3.33;;
65971;SDS011;52726;48.852;9.152;2023-05-25T11:06:10;12.73;;;3.25;;
65971;SDS011;52726;48.852;9.152;2023-05-25T11:09:00;7.32;;;3.35;;
65971;SDS011;52726;48.852;9.152;2023-05-25T11:14:19;8.93;;;3.45;;
65971;SDS011;52726;48.852;9.152;2023-05-25T11:17:02;9.77;;;3.22;;
65971;SDS011;52726;48.852;9.152;2023-05-25T11:19:41;6.43;;;3.00;;
65971;SDS011;52726;48.852;9.152;2023-05-25T11:24:48;7.35;;;2.88;;
65971;SDS011;52726;48.852;9.152;2023-05-25T11:27:14;9.02;;;3.13;;
65971;SDS011;52726;48.852;9.152;2023-05-25T11:29:47;11.17;;;3.63;;
65971;SDS011;52726;48.852;9.152;2023-05-25T11:32:14;7.93;;;3.47;;
65971;SDS011;52726;48.852;9.152;2023-05-25T11:34:40;8.35;;;3.55;;
65971;SDS011;52726;48.852;9.152;2023-05-25T11:37:10;11.00;;;3.60;;
65971;SDS011;52726;48.852;9.152;2023-05-25T11:39:37;11.60;;;3.63;;
65971;SDS011;52726;48.852;9.152;2023-05-25T11:42:03;5.90;;;3.42;;
65971;SDS011;52726;48.852;9.152;2023-05-25T11:44:32;11.43;;;3.42;;
65971;SDS011;52726;48.852;9.152;2023-05-25T11:47:00;10.13;;;4.05;;
65971;SDS011;52726;48.852;9.152;2023-05-25T11:49:41;11.35;;;3.40;;
65971;SDS011;52726;48.852;9.152;2023-05-25T11:52:15;7.70;;;3.03;;
65971;SDS011;52726;48.852;9.152;2023-05-25T11:54:42;6.77;;;3.10;;
65971;SDS011;52726;48.852;9.152;2023-05-25T11:59:50;12.02;;;3.08;;
65971;SDS011;52726;48.852;9.152;2023-05-25T12:02:20;7.38;;;3.35;;
65971;SDS011;52726;48.852;9.152;2023-05-25T12:04:52;9.80;;;3.28;;
65971;SDS011;52726;48.852;9.152;2023-05-25T12:07:19;5.65;;;3.08;;
65971;SDS011;52726;48.852;9.152;2023-05-25T12:09:45;6.30;;;3.25;;
65971;SDS011;52726;48.852;9.152;2023-05-25T12:12:10;12.55;;;3.45;;
65971;SDS011;52726;48.852;9.152;2023-05-25T12:14:45;6.72;;;3.40;;
65971;SDS011;52726;48.852;9.152;2023-05-25T12:17:11;8.20;;;3.33;;
65971;SDS011;52726;48.852;9.152;2023-05-25T12:19:37;6.65;;;3.20;;
65971;SDS011;52726;48.852;9.152;2023-05-25T12:22:02;8.15;;;3.28;;
65971;SDS011;52726;48.852;9.152;2023-05-25T12:24:28;10.88;;;3.80;;
65971;SDS011;52726;48.852;9.152;2023-05-25T12:26:54;8.80;;;3.30;;
65971;SDS011;52726;48.852;9.152;2023-05-25T12:29:22;9.52;;;3.72;;
65971;SDS011;52726;48.852;9.152;2023-05-25T12:31:51;11.45;;;3.58;;
65971;SDS011;52726;48.852;9.152;2023-05-25T12:34:17;12.90;;;4.20;;
65971;SDS011;52726;48.852;9.152;2023-05-25T12:39:09;8.52;;;3.20;;
65971;SDS011;52726;48.852;9.152;2023-05-25T12:44:17;10.40;;;4.10;;
65971;SDS011;52726;48.852;9.152;2023-05-25T12:46:45;10.75;;;2.88;;
65971;SDS011;52726;48.852;9.152;2023-05-25T12:49:21;5.03;;;3.20;;
65971;SDS011;52726;48.852;9.152;2023-05-25T12:51:57;11.15;;;3.70;;
65971;SDS011;52726;48.852;9.152;2023-05-25T12:57:01;9.10;;;3.67;;
65971;SDS011;52726;48.852;9.152;2023-05-25T12:59:30;9.38;;;3.22;;
65971;SDS011;52726;48.852;9.152;2023-05-25T13:01:57;8.38;;;3.35;;
65971;SDS011;52726;48.852;9.152;2023-05-25T13:04:24;7.50;;;3.25;;
65971;SDS011;52726;48.852;9.152;2023-05-25T13:06:51;7.38;;;3.10;;
65971;SDS011;52726;48.852;9.152;2023-05-25T13:09:17;11.35;;;3.70;;
65971;SDS011;52726;48.852;9.152;2023-05-25T13:11:42;9.07;;;4.20;;
65971;SDS011;52726;48.852;9.152;2023-05-25T13:14:10;5.60;;;3.20;;
65971;SDS011;52726;48.852;9.152;2023-05-25T13:16:36;8.02;;;3.58;;
65971;SDS011;52726;48.852;9.152;2023-05-25T13:19:01;8.38;;;3.53;;
65971;SDS011;52726;48.852;9.152;2023-05-25T13:21:28;4.18;;;2.97;;
65971;SDS011;52726;48.852;9.152;2023-05-25T13:23:53;8.32;;;3.47;;
65971;SDS011;52726;48.852;9.152;2023-05-25T13:26:19;6.30;;;3.10;;
65971;SDS011;52726;48.852;9.152;2023-05-25T13:28:45;7.60;;;3.08;;
65971;SDS011;52726;48.852;9.152;2023-05-25T13:31:10;9.60;;;3.58;;
65971;SDS011;52726;48.852;9.152;2023-05-25T13:33:35;9.48;;;3.20;;
65971;SDS011;52726;48.852;9.152;2023-05-25T13:36:01;14.00;;;3.33;;
65971;SDS011;52726;48.852;9.152;2023-05-25T13:38:35;9.25;;;3.25;;
65971;SDS011;52726;48.852;9.152;2023-05-25T13:41:01;8.77;;;3.05;;
65971;SDS011;52726;48.852;9.152;2023-05-25T13:43:27;9.55;;;3.60;;
65971;SDS011;52726;48.852;9.152;2023-05-25T13:45:53;8.27;;;3.03;;
65971;SDS011;52726;48.852;9.152;2023-05-25T13:48:18;7.80;;;3.00;;
65971;SDS011;52726;48.852;9.152;2023-05-25T13:50:47;8.65;;;3.70;;
65971;SDS011;52726;48.852;9.152;2023-05-25T13:53:13;6.18;;;3.53;;
65971;SDS011;52726;48.852;9.152;2023-05-25T13:55:38;7.82;;;3.30;;
65971;SDS011;52726;48.852;9.152;2023-05-25T13:58:10;6.95;;;2.83;;
65971;SDS011;52726;48.852;9.152;2023-05-25T14:00:38;6.75;;;3.60;;
65971;SDS011;52726;48.852;9.152;2023-05-25T14:03:07;6.22;;;2.92;;
65971;SDS011;52726;48.852;9.152;2023-05-25T14:05:32;6.93;;;3.20;;
65971;SDS011;52726;48.852;9.152;2023-05-25T14:07:57;5.05;;;2.88;;
65971;SDS011;52726;48.852;9.152;2023-05-25T14:10:26;9.52;;;3.10;;
65971;SDS011;52726;48.852;9.152;2023-05-25T14:12:52;9.15;;;2.92;;
65971;SDS011;52726;48.852;9.152;2023-05-25T14:15:17;8.57;;;2.90;;
65971;SDS011;52726;48.852;9.152;2023-05-25T14:17:42;9.80;;;3.25;;
65971;SDS011;52726;48.852;9.152;2023-05-25T14:20:08;8.20;;;3.28;;
65971;SDS011;52726;48.852;9.152;2023-05-25T14:22:33;9.70;;;3.55;;
65971;SDS011;52726;48.852;9.152;2023-05-25T14:24:58;7.32;;;3.45;;
65971;SDS011;52726;48.852;9.152;2023-05-25T14:27:24;4.93;;;2.60;;
65971;SDS011;52726;48.852;9.152;2023-05-25T14:32:52;6.65;;;3.17;;
65971;SDS011;52726;48.852;9.152;2023-05-25T14:35:17;7.53;;;2.72;;
65971;SDS011;52726;48.852;9.152;2023-05-25T14:37:43;8.88;;;3.15;;
65971;SDS011;52726;48.852;9.152;2023-05-25T14:40:11;5.90;;;3.28;;
65971;SDS011;52726;48.852;9.152;2023-05-25T14:42:37;6.68;;;2.60;;
65971;SDS011;52726;48.852;9.152;2023-05-25T14:45:02;5.88;;;2.70;;
65971;SDS011;52726;48.852;9.152;2023-05-25T14:47:28;9.10;;;3.22;;
65971;SDS011;52726;48.852;9.152;2023-05-25T14:49:53;6.22;;;3.00;;
65971;SDS011;52726;48.852;9.152;2023-05-25T14:52:20;7.15;;;2.75;;
65971;SDS011;52726;48.852;9.152;2023-05-25T14:54:45;10.38;;;3.47;;
65971;SDS011;52726;48.852;9.152;2023-05-25T14:57:11;8.52;;;3.05;;
65971;SDS011;52726;48.852;9.152;2023-05-25T14:59:39;5.13;;;2.70;;
65971;SDS011;52726;48.852;9.152;2023-05-25T15:02:05;11.02;;;3.22;;
65971;SDS011;52726;48.852;9.152;2023-05-25T15:04:30;5.75;;;2.90;;
65971;SDS011;52726;48.852;9.152;2023-05-25T15:06:56;6.80;;;2.78;;
65971;SDS011;52726;48.852;9.152;2023-05-25T15:09:25;5.55;;;2.53;;
65971;SDS011;52726;48.852;9.152;2023-05-25T15:11:51;15.05;;;2.97;;
65971;SDS011;52726;48.852;9.152;2023-05-25T15:14:16;7.93;;;3.17;;
65971;SDS011;52726;48.852;9.152;2023-05-25T15:16:42;4.60;;;2.80;;
65971;SDS011;52726;48.852;9.152;2023-05-25T15:19:07;7.05;;;2.90;;
65971;SDS011;52726;48.852;9.152;2023-05-25T15:21:35;8.02;;;2.63;;
65971;SDS011;52726;48.852;9.152;2023-05-25T15:24:01;7.57;;;3.00;;
65971;SDS011;52726;48.852;9.152;2023-05-25T15:26:27;7.47;;;3.38;;
65971;SDS011;52726;48.852;9.152;2023-05-25T15:28:55;4.15;;;2.50;;
65971;SDS011;52726;48.852;9.152;2023-05-25T15:31:24;5.90;;;2.30;;
65971;SDS011;52726;48.852;9.152;2023-05-25T15:33:52;6.63;;;3.00;;
65971;SDS011;52726;48.852;9.152;2023-05-25T15:36:19;6.72;;;2.80;;
65971;SDS011;52726;48.852;9.152;2023-05-25T15:38:48;6.30;;;2.83;;
65971;SDS011;52726;48.852;9.152;2023-05-25T15:41:14;14.38;;;3.15;;
65971;SDS011;52726;48.852;9.152;2023-05-25T15:43:52;5.78;;;2.47;;
65971;SDS011;52726;48.852;9.152;2023-05-25T15:46:25;5.32;;;2.60;;
65971;SDS011;52726;48.852;9.152;2023-05-25T15:48:52;4.93;;;2.60;;
65971;SDS011;52726;48.852;9.152;2023-05-25T15:51:18;9.50;;;2.78;;
65971;SDS011;52726;48.852;9.152;2023-05-25T15:53:52;6.60;;;3.10;;
65971;SDS011;52726;48.852;9.152;2023-05-25T15:56:22;8.15;;;2.97;;
65971;SDS011;52726;48.852;9.152;2023-05-25T15:58:47;5.47;;;2.38;;
65971;SDS011;52726;48.852;9.152;2023-05-25T16:01:15;5.75;;;2.47;;
65971;SDS011;52726;48.852;9.152;2023-05-25T16:03:41;4.35;;;2.35;;
65971;SDS011;52726;48.852;9.152;2023-05-25T16:06:08;6.60;;;2.97;;
65971;SDS011;52726;48.852;9.152;2023-05-25T16:08:35;7.85;;;3.55;;
65971;SDS011;52726;48.852;9.152;2023-05-25T16:11:01;7.55;;;2.75;;
65971;SDS011;52726;48.852;9.152;2023-05-25T16:13:26;5.18;;;2.47;;
65971;SDS011;52726;48.852;9.152;2023-05-25T16:15:51;4.47;;;2.75;;
65971;SDS011;52726;48.852;9.152;2023-05-25T16:18:17;4.65;;;3.00;;
65971;SDS011;52726;48.852;9.152;2023-05-25T16:20:42;4.97;;;2.38;;
65971;SDS011;52726;48.852;9.152;2023-05-25T16:23:08;9.38;;;3.15;;